ITY855 GOBD-LIRF
Flight info
| Callsign | ITY855 |
|---|---|
| Flight time | 4h 50m |
| Altitude | 35000 |
| Route | SAKLI1B SAKLI UR975 SEPEL DCT MINBA DCT ZRT UR975 ECHED/N0442F360 DCT OJD/N0436F370 UA411 ALR UG26 ZEM/N0437F360 UG26 REQIN DCT ORKUM DCT ELSAG DCT ALG DCT ARSIK DCT MOROB DCT ORVEX DCT UREXE DCT APSUX/N0353F180 Q710 TINTO L5 VALMA VALMA3A |
| Aircraft | A21N/M-SDA/S |
Departure
| Time | 2026-05-08 16:40 |
|---|---|
| Airport | Blaise Diagne International Airport (GOBD) |
Arrival
| Time | 2026-05-08 21:30 |
|---|---|
| Airport | Rome–Fiumicino Leonardo da Vinci International Airport (LIRF) |
| Time | Latitude | Longitude | Altitude | Speed | Heading |
|---|---|---|---|---|---|
| 2026-05-08 16:24 | 14.67079 | -17.06846 | 301 ft | 0 kts | 89° |
| 2026-05-08 16:32 | 14.67079 | -17.06850 | 300 ft | 3 kts | 89° |
| 2026-05-08 16:32 | 14.67079 | -17.06869 | 300 ft | 3 kts | 89° |
| 2026-05-08 16:33 | 14.67078 | -17.06889 | 299 ft | 3 kts | 89° |
| 2026-05-08 16:33 | 14.67078 | -17.06907 | 299 ft | 3 kts | 89° |
| 2026-05-08 16:33 | 14.67078 | -17.06926 | 300 ft | 3 kts | 89° |
| 2026-05-08 16:33 | 14.67078 | -17.06944 | 298 ft | 3 kts | 89° |
| 2026-05-08 16:34 | 14.67077 | -17.06963 | 299 ft | 3 kts | 98° |
| 2026-05-08 16:34 | 14.67085 | -17.06978 | 299 ft | 3 kts | 157° |
| 2026-05-08 16:34 | 14.67090 | -17.06980 | 298 ft | 0 kts | 175° |
| 2026-05-08 16:36 | 14.67089 | -17.06980 | 298 ft | 1 kts | 175° |
| 2026-05-08 16:36 | 14.67021 | -17.06977 | 299 ft | 19 kts | 179° |
| 2026-05-08 16:36 | 14.66852 | -17.06975 | 296 ft | 31 kts | 179° |
| 2026-05-08 16:37 | 14.66679 | -17.06989 | 296 ft | 22 kts | 226° |
| 2026-05-08 16:37 | 14.66604 | -17.07086 | 297 ft | 21 kts | 184° |
| 2026-05-08 16:37 | 14.66420 | -17.07084 | 298 ft | 33 kts | 179° |
| 2026-05-08 16:37 | 14.66146 | -17.07081 | 299 ft | 44 kts | 180° |
| 2026-05-08 16:38 | 14.65827 | -17.07078 | 299 ft | 46 kts | 179° |
| 2026-05-08 16:38 | 14.65567 | -17.07080 | 297 ft | 25 kts | 196° |
| 2026-05-08 16:38 | 14.65547 | -17.07248 | 297 ft | 24 kts | 314° |
| 2026-05-08 16:38 | 14.65604 | -17.07267 | 295 ft | 0 kts | 1° |
| 2026-05-08 16:39 | 14.65717 | -17.07266 | 295 ft | 43 kts | 360° |
| 2026-05-08 16:39 | 14.66211 | -17.07273 | 295 ft | 100 kts | 359° |
| 2026-05-08 16:39 | 14.67110 | -17.07280 | 299 ft | 154 kts | 359° |
| 2026-05-08 16:40 | 14.68240 | -17.07286 | 635 ft | 162 kts | 358° |
| 2026-05-08 16:40 | 14.69311 | -17.07336 | 1318 ft | 150 kts | 357° |
| 2026-05-08 16:40 | 14.70347 | -17.07441 | 1919 ft | 151 kts | 358° |
| 2026-05-08 16:40 | 14.71474 | -17.07445 | 2190 ft | 174 kts | 1° |
| 2026-05-08 16:41 | 14.72772 | -17.07412 | 2458 ft | 199 kts | 2° |
| 2026-05-08 16:41 | 14.74233 | -17.07389 | 2651 ft | 222 kts | 360° |
| 2026-05-08 16:41 | 14.75861 | -17.07385 | 2919 ft | 243 kts | 360° |
| 2026-05-08 16:42 | 14.79343 | -17.07404 | 3997 ft | 260 kts | 360° |
| 2026-05-08 16:42 | 14.81163 | -17.07418 | 4641 ft | 263 kts | 360° |
| 2026-05-08 16:42 | 14.82995 | -17.07433 | 5292 ft | 265 kts | 360° |
| 2026-05-08 16:42 | 14.84864 | -17.07449 | 5885 ft | 272 kts | 360° |
| 2026-05-08 16:43 | 14.86781 | -17.07466 | 6510 ft | 276 kts | 0° |
| 2026-05-08 16:43 | 14.88711 | -17.07485 | 7130 ft | 280 kts | 0° |
| 2026-05-08 16:43 | 14.90674 | -17.07504 | 7740 ft | 285 kts | 1° |
| 2026-05-08 16:43 | 14.92670 | -17.07487 | 8347 ft | 289 kts | 7° |
| 2026-05-08 16:44 | 14.94644 | -17.07052 | 8989 ft | 291 kts | 22° |
| 2026-05-08 16:44 | 14.96515 | -17.06216 | 9630 ft | 294 kts | 27° |
| 2026-05-08 16:44 | 14.98357 | -17.05253 | 10199 ft | 301 kts | 30° |
| 2026-05-08 16:44 | 15.00264 | -17.04211 | 10443 ft | 319 kts | 31° |
| 2026-05-08 16:45 | 15.02276 | -17.03096 | 10680 ft | 337 kts | 31° |
| 2026-05-08 16:45 | 15.04391 | -17.01923 | 10897 ft | 354 kts | 30° |
| 2026-05-08 16:45 | 15.06579 | -17.00708 | 11152 ft | 366 kts | 30° |
| 2026-05-08 16:45 | 15.08846 | -16.99447 | 11568 ft | 373 kts | 31° |
| 2026-05-08 16:46 | 15.11150 | -16.98165 | 11994 ft | 379 kts | 30° |
| 2026-05-08 16:46 | 15.13479 | -16.96869 | 12510 ft | 382 kts | 30° |
| 2026-05-08 16:46 | 15.15849 | -16.95551 | 12965 ft | 388 kts | 30° |
| 2026-05-08 16:46 | 15.18240 | -16.94221 | 13540 ft | 391 kts | 30° |
| 2026-05-08 16:47 | 15.20660 | -16.92874 | 13990 ft | 396 kts | 30° |
| 2026-05-08 16:47 | 15.23056 | -16.91540 | 14516 ft | 397 kts | 29° |
| 2026-05-08 16:47 | 15.25500 | -16.90178 | 14965 ft | 402 kts | 29° |
| 2026-05-08 16:47 | 15.27971 | -16.88801 | 15515 ft | 403 kts | 29° |
| 2026-05-08 16:48 | 15.30455 | -16.87416 | 15968 ft | 408 kts | 28° |
| 2026-05-08 16:48 | 15.32958 | -16.86019 | 16519 ft | 408 kts | 28° |
| 2026-05-08 16:48 | 15.35476 | -16.84614 | 16995 ft | 411 kts | 28° |
| 2026-05-08 16:48 | 15.38000 | -16.83206 | 17524 ft | 411 kts | 28° |
| 2026-05-08 16:49 | 15.40498 | -16.81812 | 17922 ft | 415 kts | 28° |
| 2026-05-08 16:49 | 15.43046 | -16.80389 | 18312 ft | 417 kts | 27° |
| 2026-05-08 16:49 | 15.45613 | -16.78956 | 18612 ft | 420 kts | 28° |
| 2026-05-08 16:49 | 15.48192 | -16.77515 | 18941 ft | 421 kts | 28° |
| 2026-05-08 16:50 | 15.50779 | -16.76069 | 19247 ft | 424 kts | 28° |
| 2026-05-08 16:50 | 15.52489 | -16.75113 | 19462 ft | 425 kts | 28° |
| 2026-05-08 16:50 | 15.55111 | -16.73647 | 19784 ft | 426 kts | 28° |
| 2026-05-08 16:50 | 15.57735 | -16.72179 | 20078 ft | 428 kts | 28° |
| 2026-05-08 16:51 | 15.60365 | -16.70708 | 20387 ft | 431 kts | 28° |
| 2026-05-08 16:51 | 15.63013 | -16.69225 | 20673 ft | 432 kts | 28° |
| 2026-05-08 16:51 | 15.65677 | -16.67734 | 20874 ft | 438 kts | 28° |
| 2026-05-08 16:51 | 15.68367 | -16.66228 | 21220 ft | 437 kts | 28° |
| 2026-05-08 16:52 | 15.71049 | -16.64725 | 21545 ft | 440 kts | 28° |
| 2026-05-08 16:52 | 15.73715 | -16.63231 | 21912 ft | 440 kts | 28° |
| 2026-05-08 16:52 | 15.76415 | -16.61719 | 22182 ft | 444 kts | 28° |
| 2026-05-08 16:52 | 15.79134 | -16.60194 | 22549 ft | 444 kts | 28° |
| 2026-05-08 16:53 | 15.84611 | -16.57121 | 23246 ft | 448 kts | 28° |
| 2026-05-08 16:53 | 15.87360 | -16.55579 | 23522 ft | 451 kts | 28° |
| 2026-05-08 16:53 | 15.90123 | -16.54028 | 23834 ft | 453 kts | 28° |
| 2026-05-08 16:54 | 15.92916 | -16.52460 | 23972 ft | 459 kts | 28° |
| 2026-05-08 16:54 | 15.95697 | -16.50899 | 24286 ft | 459 kts | 27° |
| 2026-05-08 16:54 | 15.98533 | -16.49306 | 24539 ft | 462 kts | 27° |
| 2026-05-08 16:54 | 16.01372 | -16.47710 | 24840 ft | 464 kts | 27° |
| 2026-05-08 16:55 | 16.04209 | -16.46080 | 25089 ft | 467 kts | 30° |
| 2026-05-08 16:55 | 16.06954 | -16.44263 | 25342 ft | 470 kts | 32° |
| 2026-05-08 16:55 | 16.09659 | -16.42334 | 25578 ft | 473 kts | 34° |
| 2026-05-08 16:55 | 16.12346 | -16.40343 | 25814 ft | 476 kts | 34° |
| 2026-05-08 16:56 | 16.15032 | -16.38323 | 26042 ft | 479 kts | 34° |
| 2026-05-08 16:56 | 16.17729 | -16.36291 | 26123 ft | 479 kts | 34° |
| 2026-05-08 16:56 | 16.20444 | -16.34253 | 26308 ft | 483 kts | 34° |
| 2026-05-08 16:56 | 16.23142 | -16.32237 | 26518 ft | 485 kts | 34° |
| 2026-05-08 16:57 | 16.25899 | -16.30185 | 26726 ft | 488 kts | 33° |
| 2026-05-08 16:57 | 16.28670 | -16.28127 | 26940 ft | 491 kts | 33° |
| 2026-05-08 16:57 | 16.31463 | -16.26050 | 27158 ft | 494 kts | 33° |
| 2026-05-08 16:57 | 16.34258 | -16.23960 | 27362 ft | 496 kts | 33° |
| 2026-05-08 16:58 | 16.37075 | -16.21854 | 27552 ft | 499 kts | 33° |
| 2026-05-08 16:58 | 16.39904 | -16.19742 | 27740 ft | 501 kts | 33° |
| 2026-05-08 16:58 | 16.42746 | -16.17624 | 27951 ft | 503 kts | 33° |
| 2026-05-08 16:58 | 16.45606 | -16.15495 | 28151 ft | 506 kts | 33° |
| 2026-05-08 16:59 | 16.48479 | -16.13359 | 28380 ft | 507 kts | 33° |
| 2026-05-08 16:59 | 16.51347 | -16.11225 | 28645 ft | 507 kts | 33° |
| 2026-05-08 16:59 | 16.54227 | -16.09083 | 28898 ft | 508 kts | 33° |
| 2026-05-08 16:59 | 16.57072 | -16.06964 | 29148 ft | 509 kts | 33° |
| 2026-05-08 17:00 | 16.59969 | -16.04805 | 29380 ft | 510 kts | 32° |
| 2026-05-08 17:00 | 16.62866 | -16.02647 | 29623 ft | 511 kts | 32° |
| 2026-05-08 17:00 | 16.65769 | -16.00485 | 29875 ft | 512 kts | 32° |
| 2026-05-08 17:00 | 16.68662 | -15.98321 | 30102 ft | 512 kts | 32° |
| 2026-05-08 17:01 | 16.71524 | -15.96176 | 30325 ft | 512 kts | 32° |
| 2026-05-08 17:01 | 16.74423 | -15.94005 | 30583 ft | 512 kts | 32° |
| 2026-05-08 17:01 | 16.77321 | -15.91841 | 30841 ft | 511 kts | 32° |
| 2026-05-08 17:01 | 16.80213 | -15.89688 | 31170 ft | 508 kts | 32° |
| 2026-05-08 17:02 | 16.83102 | -15.87535 | 31424 ft | 508 kts | 32° |
| 2026-05-08 17:02 | 16.85978 | -15.85390 | 31638 ft | 509 kts | 32° |
| 2026-05-08 17:02 | 16.88865 | -15.83235 | 31865 ft | 509 kts | 32° |
| 2026-05-08 17:02 | 16.91705 | -15.81112 | 32086 ft | 509 kts | 32° |
| 2026-05-08 17:03 | 16.94591 | -15.78953 | 32302 ft | 509 kts | 32° |
| 2026-05-08 17:03 | 16.97478 | -15.76792 | 32520 ft | 509 kts | 32° |
| 2026-05-08 17:03 | 17.00360 | -15.74634 | 32741 ft | 509 kts | 32° |
| 2026-05-08 17:03 | 17.03243 | -15.72474 | 32966 ft | 509 kts | 32° |
| 2026-05-08 17:04 | 17.06121 | -15.70318 | 33185 ft | 510 kts | 32° |
| 2026-05-08 17:04 | 17.09003 | -15.68157 | 33406 ft | 509 kts | 32° |
| 2026-05-08 17:04 | 17.11887 | -15.65994 | 33620 ft | 510 kts | 32° |
| 2026-05-08 17:04 | 17.14740 | -15.63854 | 33843 ft | 510 kts | 32° |
| 2026-05-08 17:05 | 17.17622 | -15.61690 | 34020 ft | 510 kts | 32° |
| 2026-05-08 17:05 | 17.20511 | -15.59521 | 34198 ft | 510 kts | 32° |
| 2026-05-08 17:05 | 17.23386 | -15.57363 | 34375 ft | 509 kts | 32° |
| 2026-05-08 17:05 | 17.26269 | -15.55197 | 34560 ft | 509 kts | 32° |
| 2026-05-08 17:06 | 17.29113 | -15.53059 | 34729 ft | 509 kts | 32° |
| 2026-05-08 17:06 | 17.31991 | -15.50896 | 34855 ft | 509 kts | 32° |
| 2026-05-08 17:06 | 17.37758 | -15.46558 | 34868 ft | 509 kts | 32° |
| 2026-05-08 17:07 | 17.43478 | -15.42251 | 34869 ft | 509 kts | 32° |
| 2026-05-08 17:07 | 17.49261 | -15.37893 | 34870 ft | 509 kts | 32° |
| 2026-05-08 17:08 | 17.54970 | -15.33587 | 34855 ft | 509 kts | 32° |
| 2026-05-08 17:08 | 17.60710 | -15.29254 | 34857 ft | 509 kts | 32° |
| 2026-05-08 17:09 | 17.66472 | -15.24904 | 34865 ft | 509 kts | 32° |
| 2026-05-08 17:09 | 17.72198 | -15.20580 | 34856 ft | 509 kts | 32° |
| 2026-05-08 17:10 | 17.77958 | -15.16229 | 34868 ft | 509 kts | 32° |
| 2026-05-08 17:10 | 17.83745 | -15.12025 | 34884 ft | 505 kts | 26° |
| 2026-05-08 17:11 | 17.89807 | -15.08301 | 34860 ft | 503 kts | 26° |
| 2026-05-08 17:11 | 17.95908 | -15.04682 | 34860 ft | 503 kts | 25° |
| 2026-05-08 17:12 | 18.02013 | -15.01085 | 34859 ft | 503 kts | 25° |
| 2026-05-08 17:12 | 18.08114 | -14.97479 | 34860 ft | 503 kts | 25° |
| 2026-05-08 17:13 | 18.14204 | -14.93868 | 34857 ft | 503 kts | 25° |
| 2026-05-08 17:13 | 18.20301 | -14.90247 | 34866 ft | 503 kts | 25° |
| 2026-05-08 17:14 | 18.26388 | -14.86628 | 34857 ft | 501 kts | 25° |
| 2026-05-08 17:14 | 18.32417 | -14.83042 | 34857 ft | 500 kts | 25° |
| 2026-05-08 17:15 | 18.38490 | -14.79427 | 34856 ft | 501 kts | 25° |
| 2026-05-08 17:15 | 18.44556 | -14.75813 | 34856 ft | 501 kts | 25° |
| 2026-05-08 17:16 | 18.50614 | -14.72200 | 34856 ft | 501 kts | 25° |
| 2026-05-08 17:16 | 18.56675 | -14.68583 | 34857 ft | 498 kts | 26° |
| 2026-05-08 17:17 | 18.62642 | -14.65016 | 34854 ft | 494 kts | 26° |
| 2026-05-08 17:17 | 18.68620 | -14.61443 | 34851 ft | 494 kts | 26° |
| 2026-05-08 17:18 | 18.74593 | -14.57872 | 34851 ft | 494 kts | 26° |
| 2026-05-08 17:18 | 18.80581 | -14.54287 | 34852 ft | 496 kts | 26° |
| 2026-05-08 17:19 | 18.86596 | -14.50684 | 34850 ft | 497 kts | 26° |
| 2026-05-08 17:19 | 18.92610 | -14.47076 | 34850 ft | 494 kts | 26° |
| 2026-05-08 17:20 | 18.98525 | -14.43523 | 34851 ft | 491 kts | 26° |
| 2026-05-08 17:20 | 19.04471 | -14.39951 | 34851 ft | 491 kts | 26° |
| 2026-05-08 17:21 | 19.10430 | -14.36370 | 34853 ft | 491 kts | 26° |
| 2026-05-08 17:21 | 19.16373 | -14.32794 | 34851 ft | 491 kts | 26° |
| 2026-05-08 17:22 | 19.22278 | -14.29238 | 34851 ft | 491 kts | 26° |
| 2026-05-08 17:22 | 19.28191 | -14.25672 | 34854 ft | 485 kts | 26° |
| 2026-05-08 17:23 | 19.34041 | -14.22142 | 34855 ft | 483 kts | 26° |
| 2026-05-08 17:23 | 19.39906 | -14.18602 | 34853 ft | 486 kts | 26° |
| 2026-05-08 17:24 | 19.45763 | -14.15065 | 34853 ft | 488 kts | 26° |
| 2026-05-08 17:24 | 19.51683 | -14.11485 | 34861 ft | 488 kts | 26° |
| 2026-05-08 17:25 | 19.57585 | -14.07911 | 34861 ft | 488 kts | 26° |
| 2026-05-08 17:25 | 19.63431 | -14.04367 | 34855 ft | 479 kts | 27° |
| 2026-05-08 17:26 | 19.69161 | -14.00892 | 34859 ft | 476 kts | 27° |
| 2026-05-08 17:26 | 19.74934 | -13.97399 | 34858 ft | 476 kts | 26° |
| 2026-05-08 17:27 | 19.80850 | -13.94276 | 34865 ft | 474 kts | 21° |
| 2026-05-08 17:27 | 19.86821 | -13.91408 | 34862 ft | 473 kts | 21° |
| 2026-05-08 17:28 | 19.92826 | -13.88521 | 34872 ft | 473 kts | 21° |
| 2026-05-08 17:28 | 19.98782 | -13.85607 | 34867 ft | 468 kts | 22° |
| 2026-05-08 17:29 | 20.04700 | -13.82689 | 34865 ft | 470 kts | 22° |
| 2026-05-08 17:29 | 20.10643 | -13.79752 | 34867 ft | 471 kts | 22° |
| 2026-05-08 17:30 | 20.16588 | -13.76812 | 34864 ft | 471 kts | 22° |
| 2026-05-08 17:30 | 20.22504 | -13.73886 | 34867 ft | 471 kts | 22° |
| 2026-05-08 17:31 | 20.28451 | -13.70941 | 34870 ft | 470 kts | 22° |
| 2026-05-08 17:31 | 20.34369 | -13.68008 | 34867 ft | 468 kts | 22° |
| 2026-05-08 17:32 | 20.40256 | -13.65089 | 34867 ft | 468 kts | 22° |
| 2026-05-08 17:32 | 20.46157 | -13.62161 | 34867 ft | 468 kts | 22° |
| 2026-05-08 17:33 | 20.52072 | -13.59223 | 34869 ft | 468 kts | 22° |
| 2026-05-08 17:33 | 20.57968 | -13.56291 | 34867 ft | 468 kts | 22° |
| 2026-05-08 17:34 | 20.63842 | -13.53369 | 34868 ft | 469 kts | 22° |
| 2026-05-08 17:34 | 20.69763 | -13.50420 | 34867 ft | 469 kts | 22° |
| 2026-05-08 17:35 | 20.75687 | -13.47467 | 34871 ft | 470 kts | 22° |
| 2026-05-08 17:35 | 20.81619 | -13.44508 | 34870 ft | 470 kts | 22° |
| 2026-05-08 17:36 | 20.87548 | -13.41547 | 34873 ft | 470 kts | 22° |
| 2026-05-08 17:36 | 20.93439 | -13.38602 | 34873 ft | 470 kts | 22° |
| 2026-05-08 17:37 | 20.99373 | -13.35634 | 34873 ft | 470 kts | 22° |
| 2026-05-08 17:37 | 21.04296 | -13.33170 | 34876 ft | 470 kts | 22° |
| 2026-05-08 17:38 | 21.10213 | -13.30205 | 34879 ft | 470 kts | 22° |
| 2026-05-08 17:38 | 21.16138 | -13.27235 | 34878 ft | 470 kts | 22° |
| 2026-05-08 17:39 | 21.22061 | -13.24261 | 34878 ft | 470 kts | 22° |
| 2026-05-08 17:39 | 21.27952 | -13.21302 | 34882 ft | 470 kts | 21° |
| 2026-05-08 17:40 | 21.33889 | -13.18317 | 34874 ft | 471 kts | 21° |
| 2026-05-08 17:40 | 21.39831 | -13.15327 | 34878 ft | 472 kts | 21° |
| 2026-05-08 17:41 | 21.45776 | -13.12332 | 34880 ft | 472 kts | 21° |
| 2026-05-08 17:41 | 21.51722 | -13.09334 | 34882 ft | 472 kts | 21° |
| 2026-05-08 17:42 | 21.57643 | -13.06347 | 34887 ft | 472 kts | 21° |
| 2026-05-08 17:42 | 21.63594 | -13.03341 | 34880 ft | 472 kts | 21° |
| 2026-05-08 17:43 | 21.69549 | -13.00330 | 34882 ft | 473 kts | 21° |
| 2026-05-08 17:43 | 21.75506 | -12.97316 | 34883 ft | 473 kts | 21° |
| 2026-05-08 17:44 | 21.81470 | -12.94296 | 34885 ft | 473 kts | 21° |
| 2026-05-08 17:44 | 21.87402 | -12.91289 | 34884 ft | 473 kts | 21° |
| 2026-05-08 17:45 | 21.93359 | -12.88266 | 34880 ft | 473 kts | 21° |
| 2026-05-08 17:45 | 21.99330 | -12.85233 | 34891 ft | 474 kts | 21° |
| 2026-05-08 17:46 | 22.05261 | -12.82218 | 34889 ft | 474 kts | 21° |
| 2026-05-08 17:46 | 22.11226 | -12.79183 | 34889 ft | 474 kts | 21° |
| 2026-05-08 17:47 | 22.17193 | -12.76144 | 34893 ft | 474 kts | 21° |
| 2026-05-08 17:47 | 22.22154 | -12.73615 | 34891 ft | 474 kts | 21° |
| 2026-05-08 17:48 | 22.29132 | -12.70055 | 34908 ft | 475 kts | 21° |
| 2026-05-08 17:48 | 22.35112 | -12.67001 | 34900 ft | 476 kts | 21° |
| 2026-05-08 17:49 | 22.41100 | -12.63940 | 34902 ft | 476 kts | 21° |
| 2026-05-08 17:49 | 22.47057 | -12.60891 | 34900 ft | 476 kts | 21° |
| 2026-05-08 17:50 | 22.53052 | -12.57820 | 34905 ft | 476 kts | 21° |
| 2026-05-08 17:50 | 22.59036 | -12.54752 | 34904 ft | 476 kts | 21° |
| 2026-05-08 17:51 | 22.65030 | -12.51676 | 34907 ft | 477 kts | 21° |
| 2026-05-08 17:51 | 22.71029 | -12.48595 | 34906 ft | 478 kts | 21° |
| 2026-05-08 17:52 | 22.77114 | -12.45730 | 34914 ft | 474 kts | 15° |
| 2026-05-08 17:53 | 22.86415 | -12.42238 | 34913 ft | 473 kts | 14° |
| 2026-05-08 17:53 | 22.92671 | -12.39975 | 34911 ft | 473 kts | 13° |
| 2026-05-08 17:54 | 22.98889 | -12.37722 | 34916 ft | 474 kts | 13° |
| 2026-05-08 17:54 | 23.05163 | -12.35436 | 34920 ft | 475 kts | 13° |
| 2026-05-08 17:55 | 23.11434 | -12.33145 | 34915 ft | 475 kts | 13° |
| 2026-05-08 17:55 | 23.17663 | -12.30865 | 34920 ft | 475 kts | 13° |
| 2026-05-08 17:56 | 23.23925 | -12.28573 | 34920 ft | 475 kts | 13° |
| 2026-05-08 17:56 | 23.30193 | -12.26276 | 34925 ft | 476 kts | 13° |
| 2026-05-08 17:57 | 23.36473 | -12.23973 | 34922 ft | 477 kts | 13° |
| 2026-05-08 17:57 | 23.42765 | -12.21662 | 34926 ft | 477 kts | 13° |
| 2026-05-08 17:58 | 23.49056 | -12.19349 | 34925 ft | 477 kts | 13° |
| 2026-05-08 17:58 | 23.55340 | -12.17036 | 34925 ft | 477 kts | 13° |
| 2026-05-08 17:59 | 23.61586 | -12.14735 | 34933 ft | 477 kts | 13° |
| 2026-05-08 17:59 | 23.67888 | -12.12412 | 34928 ft | 478 kts | 13° |
| 2026-05-08 18:00 | 23.74192 | -12.10086 | 34928 ft | 478 kts | 13° |
| 2026-05-08 18:00 | 23.83643 | -12.06593 | 34930 ft | 478 kts | 13° |
| 2026-05-08 18:01 | 23.89913 | -12.04273 | 34924 ft | 478 kts | 13° |
| 2026-05-08 18:01 | 23.96218 | -12.01937 | 34921 ft | 478 kts | 13° |
| 2026-05-08 18:02 | 24.01467 | -11.99992 | 34938 ft | 478 kts | 13° |
| 2026-05-08 18:02 | 24.08833 | -11.97258 | 34925 ft | 478 kts | 13° |
| 2026-05-08 18:03 | 24.15105 | -11.94927 | 34924 ft | 478 kts | 13° |
| 2026-05-08 18:03 | 24.21421 | -11.92578 | 34923 ft | 478 kts | 13° |
| 2026-05-08 18:04 | 24.27741 | -11.90225 | 34924 ft | 478 kts | 13° |
| 2026-05-08 18:04 | 24.34048 | -11.87874 | 34925 ft | 479 kts | 13° |
| 2026-05-08 18:05 | 24.40316 | -11.85535 | 34920 ft | 479 kts | 13° |
| 2026-05-08 18:05 | 24.46629 | -11.83177 | 34920 ft | 479 kts | 13° |
| 2026-05-08 18:06 | 24.52937 | -11.80819 | 34934 ft | 479 kts | 13° |
| 2026-05-08 18:06 | 24.59241 | -11.78458 | 34930 ft | 478 kts | 12° |
| 2026-05-08 18:07 | 24.65547 | -11.76096 | 34926 ft | 478 kts | 12° |
| 2026-05-08 18:07 | 24.71850 | -11.73731 | 34924 ft | 478 kts | 12° |
| 2026-05-08 18:08 | 24.78116 | -11.71379 | 34924 ft | 479 kts | 12° |
| 2026-05-08 18:08 | 24.84422 | -11.69008 | 34932 ft | 479 kts | 12° |
| 2026-05-08 18:09 | 24.90741 | -11.66630 | 34929 ft | 479 kts | 12° |
| 2026-05-08 18:09 | 24.97030 | -11.64262 | 34939 ft | 480 kts | 12° |
| 2026-05-08 18:10 | 25.03345 | -11.61880 | 34937 ft | 480 kts | 12° |
| 2026-05-08 18:10 | 25.09663 | -11.59494 | 34936 ft | 480 kts | 12° |
| 2026-05-08 18:11 | 25.15986 | -11.57105 | 34935 ft | 480 kts | 12° |
| 2026-05-08 18:11 | 25.22273 | -11.54714 | 34943 ft | 481 kts | 12° |
| 2026-05-08 18:12 | 25.28578 | -11.52157 | 34938 ft | 484 kts | 13° |
| 2026-05-08 18:12 | 25.34880 | -11.49526 | 34944 ft | 484 kts | 14° |
| 2026-05-08 18:13 | 25.41188 | -11.46895 | 34946 ft | 484 kts | 13° |
| 2026-05-08 18:13 | 25.47491 | -11.44279 | 34947 ft | 484 kts | 13° |
| 2026-05-08 18:14 | 25.53800 | -11.41664 | 34953 ft | 485 kts | 13° |
| 2026-05-08 18:14 | 25.60137 | -11.39037 | 34949 ft | 486 kts | 13° |
| 2026-05-08 18:15 | 25.66436 | -11.36420 | 34950 ft | 486 kts | 13° |
| 2026-05-08 18:15 | 25.72779 | -11.33781 | 34952 ft | 486 kts | 13° |
| 2026-05-08 18:16 | 25.79120 | -11.31140 | 34950 ft | 486 kts | 13° |
| 2026-05-08 18:16 | 25.85420 | -11.28513 | 34953 ft | 486 kts | 13° |
| 2026-05-08 18:17 | 25.91766 | -11.25865 | 34951 ft | 487 kts | 13° |
| 2026-05-08 18:17 | 25.98117 | -11.23212 | 34952 ft | 487 kts | 13° |
| 2026-05-08 18:18 | 26.04437 | -11.20567 | 34952 ft | 487 kts | 13° |
| 2026-05-08 18:18 | 26.10789 | -11.17907 | 34954 ft | 487 kts | 13° |
| 2026-05-08 18:19 | 26.17139 | -11.15244 | 34952 ft | 488 kts | 13° |
| 2026-05-08 18:19 | 26.23509 | -11.12571 | 34944 ft | 488 kts | 13° |
| 2026-05-08 18:20 | 26.29878 | -11.09894 | 34949 ft | 489 kts | 13° |
| 2026-05-08 18:20 | 26.36210 | -11.07229 | 34946 ft | 489 kts | 13° |
| 2026-05-08 18:21 | 26.42573 | -11.04549 | 34944 ft | 489 kts | 13° |
| 2026-05-08 18:21 | 26.48914 | -11.01874 | 34944 ft | 489 kts | 13° |
| 2026-05-08 18:22 | 26.55335 | -10.99164 | 34941 ft | 490 kts | 13° |
| 2026-05-08 18:22 | 26.61685 | -10.96479 | 34936 ft | 490 kts | 13° |
| 2026-05-08 18:23 | 26.68076 | -10.93773 | 34944 ft | 490 kts | 13° |
| 2026-05-08 18:23 | 26.74425 | -10.91083 | 34937 ft | 491 kts | 13° |
| 2026-05-08 18:24 | 26.80834 | -10.88364 | 34935 ft | 492 kts | 12° |
| 2026-05-08 18:24 | 26.87251 | -10.85638 | 34927 ft | 493 kts | 12° |
| 2026-05-08 18:25 | 26.92581 | -10.83371 | 34932 ft | 493 kts | 12° |
| 2026-05-08 18:25 | 26.98999 | -10.80638 | 34926 ft | 493 kts | 12° |
| 2026-05-08 18:26 | 27.05432 | -10.77895 | 34928 ft | 493 kts | 12° |
| 2026-05-08 18:26 | 27.11816 | -10.75171 | 34931 ft | 493 kts | 12° |
| 2026-05-08 18:27 | 27.17167 | -10.72885 | 34932 ft | 494 kts | 12° |
| 2026-05-08 18:27 | 27.24642 | -10.69687 | 34926 ft | 494 kts | 12° |
| 2026-05-08 18:28 | 27.31070 | -10.66933 | 34931 ft | 494 kts | 12° |
| 2026-05-08 18:28 | 27.37504 | -10.64173 | 34930 ft | 494 kts | 12° |
| 2026-05-08 18:29 | 27.43923 | -10.61417 | 34932 ft | 494 kts | 12° |
| 2026-05-08 18:29 | 27.50349 | -10.58654 | 34934 ft | 494 kts | 12° |
| 2026-05-08 18:30 | 27.56736 | -10.55904 | 34934 ft | 494 kts | 12° |
| 2026-05-08 18:30 | 27.63145 | -10.53127 | 34934 ft | 496 kts | 15° |
| 2026-05-08 18:31 | 27.66250 | -10.51309 | 34948 ft | 507 kts | 26° |
| 2026-05-08 18:31 | 27.69082 | -10.48889 | 34948 ft | 514 kts | 34° |
| 2026-05-08 18:31 | 27.74420 | -10.43430 | 34938 ft | 520 kts | 38° |
| 2026-05-08 18:32 | 27.79626 | -10.37719 | 34936 ft | 522 kts | 39° |
| 2026-05-08 18:32 | 27.84828 | -10.31990 | 34936 ft | 521 kts | 39° |
| 2026-05-08 18:33 | 27.90015 | -10.26326 | 34933 ft | 521 kts | 39° |
| 2026-05-08 18:33 | 27.95247 | -10.20636 | 34933 ft | 521 kts | 39° |
| 2026-05-08 18:34 | 28.00480 | -10.14944 | 34954 ft | 521 kts | 39° |
| 2026-05-08 18:34 | 28.05717 | -10.09239 | 34929 ft | 522 kts | 39° |
| 2026-05-08 18:35 | 28.10923 | -10.03556 | 34931 ft | 523 kts | 39° |
| 2026-05-08 18:35 | 28.16162 | -9.97827 | 34925 ft | 523 kts | 39° |
| 2026-05-08 18:36 | 28.21394 | -9.92098 | 34924 ft | 523 kts | 39° |
| 2026-05-08 18:36 | 28.26623 | -9.86366 | 34929 ft | 523 kts | 39° |
| 2026-05-08 18:37 | 28.31857 | -9.80619 | 34961 ft | 523 kts | 39° |
| 2026-05-08 18:37 | 28.37082 | -9.74873 | 34922 ft | 523 kts | 39° |
| 2026-05-08 18:38 | 28.42310 | -9.69117 | 34922 ft | 524 kts | 39° |
| 2026-05-08 18:38 | 28.47538 | -9.63352 | 34915 ft | 524 kts | 39° |
| 2026-05-08 18:39 | 28.52765 | -9.57578 | 34910 ft | 524 kts | 39° |
| 2026-05-08 18:39 | 28.57989 | -9.51801 | 34905 ft | 524 kts | 39° |
| 2026-05-08 18:40 | 28.63179 | -9.46053 | 34939 ft | 524 kts | 40° |
| 2026-05-08 18:40 | 28.68402 | -9.40260 | 34905 ft | 524 kts | 40° |
| 2026-05-08 18:41 | 28.73628 | -9.34454 | 34890 ft | 524 kts | 40° |
| 2026-05-08 18:41 | 28.78846 | -9.28649 | 34892 ft | 524 kts | 40° |
| 2026-05-08 18:42 | 28.84043 | -9.22859 | 34878 ft | 524 kts | 40° |
| 2026-05-08 18:42 | 28.89259 | -9.17039 | 34875 ft | 524 kts | 40° |
| 2026-05-08 18:43 | 28.94476 | -9.11210 | 34919 ft | 524 kts | 40° |
| 2026-05-08 18:43 | 28.99698 | -9.05366 | 34866 ft | 525 kts | 40° |
| 2026-05-08 18:44 | 29.04917 | -8.99513 | 34870 ft | 526 kts | 40° |
| 2026-05-08 18:44 | 29.10107 | -8.93689 | 34851 ft | 526 kts | 40° |
| 2026-05-08 18:45 | 29.15339 | -8.87809 | 34851 ft | 526 kts | 40° |
| 2026-05-08 18:45 | 29.20553 | -8.81939 | 34861 ft | 526 kts | 40° |
| 2026-05-08 18:46 | 29.25768 | -8.76060 | 34874 ft | 527 kts | 40° |
| 2026-05-08 18:46 | 29.30969 | -8.70186 | 34837 ft | 527 kts | 41° |
| 2026-05-08 18:47 | 29.36195 | -8.64276 | 34823 ft | 528 kts | 41° |
| 2026-05-08 18:47 | 29.41427 | -8.58349 | 34834 ft | 528 kts | 41° |
| 2026-05-08 18:48 | 29.46651 | -8.52423 | 34844 ft | 528 kts | 41° |
| 2026-05-08 18:48 | 29.51846 | -8.46520 | 34826 ft | 528 kts | 41° |
| 2026-05-08 18:49 | 29.57074 | -8.40572 | 34866 ft | 528 kts | 41° |
| 2026-05-08 18:49 | 29.62303 | -8.34614 | 34843 ft | 530 kts | 41° |
| 2026-05-08 18:50 | 29.67538 | -8.28637 | 34820 ft | 529 kts | 41° |
| 2026-05-08 18:50 | 29.72733 | -8.22697 | 34847 ft | 529 kts | 41° |
| 2026-05-08 18:51 | 29.77957 | -8.16716 | 34828 ft | 530 kts | 41° |
| 2026-05-08 18:51 | 29.83194 | -8.10710 | 34848 ft | 530 kts | 41° |
| 2026-05-08 18:52 | 29.88390 | -8.04742 | 34860 ft | 529 kts | 41° |
| 2026-05-08 18:52 | 29.93598 | -7.98751 | 34878 ft | 529 kts | 41° |
| 2026-05-08 18:53 | 29.98816 | -7.92740 | 34874 ft | 529 kts | 41° |
| 2026-05-08 18:53 | 30.04018 | -7.86737 | 34862 ft | 529 kts | 42° |
| 2026-05-08 18:54 | 30.09220 | -7.80724 | 34893 ft | 529 kts | 42° |
| 2026-05-08 18:54 | 30.14390 | -7.74740 | 34895 ft | 529 kts | 41° |
| 2026-05-08 18:55 | 30.22173 | -7.65705 | 34921 ft | 527 kts | 42° |
| 2026-05-08 18:56 | 30.27340 | -7.59700 | 34895 ft | 527 kts | 42° |
| 2026-05-08 18:56 | 30.32507 | -7.53689 | 34924 ft | 526 kts | 42° |
| 2026-05-08 18:57 | 30.37667 | -7.47676 | 34924 ft | 526 kts | 42° |
| 2026-05-08 18:57 | 30.42790 | -7.41694 | 34913 ft | 525 kts | 42° |
| 2026-05-08 18:58 | 30.47943 | -7.35668 | 34914 ft | 526 kts | 42° |
| 2026-05-08 18:58 | 30.53088 | -7.29640 | 34914 ft | 526 kts | 42° |
| 2026-05-08 18:59 | 30.58237 | -7.23598 | 34883 ft | 526 kts | 42° |
| 2026-05-08 18:59 | 30.63386 | -7.17548 | 34885 ft | 526 kts | 42° |
| 2026-05-08 19:00 | 30.67663 | -7.12514 | 34864 ft | 526 kts | 43° |
| 2026-05-08 19:00 | 30.73658 | -7.05449 | 34866 ft | 527 kts | 42° |
| 2026-05-08 19:01 | 30.78803 | -6.99373 | 34874 ft | 527 kts | 43° |
| 2026-05-08 19:01 | 30.83942 | -6.93293 | 34844 ft | 527 kts | 43° |
| 2026-05-08 19:02 | 30.89082 | -6.87203 | 34843 ft | 528 kts | 43° |
| 2026-05-08 19:02 | 30.94198 | -6.81133 | 34850 ft | 527 kts | 43° |
| 2026-05-08 19:03 | 30.99337 | -6.75024 | 34847 ft | 528 kts | 43° |
| 2026-05-08 19:03 | 31.04478 | -6.68903 | 34847 ft | 528 kts | 43° |
| 2026-05-08 19:04 | 31.09610 | -6.62783 | 34851 ft | 527 kts | 43° |
| 2026-05-08 19:04 | 31.14738 | -6.56657 | 34849 ft | 527 kts | 43° |
| 2026-05-08 19:05 | 31.19827 | -6.50568 | 34844 ft | 527 kts | 43° |
| 2026-05-08 19:05 | 31.24949 | -6.44431 | 34825 ft | 526 kts | 43° |
| 2026-05-08 19:06 | 31.30050 | -6.38307 | 34857 ft | 525 kts | 43° |
| 2026-05-08 19:06 | 31.35115 | -6.32217 | 34856 ft | 525 kts | 43° |
| 2026-05-08 19:07 | 31.40215 | -6.26076 | 34883 ft | 525 kts | 44° |
| 2026-05-08 19:07 | 31.45312 | -6.19927 | 34872 ft | 525 kts | 44° |
| 2026-05-08 19:08 | 31.50406 | -6.13771 | 34886 ft | 526 kts | 44° |
| 2026-05-08 19:08 | 31.55490 | -6.07616 | 34863 ft | 525 kts | 44° |
| 2026-05-08 19:09 | 31.60534 | -6.01502 | 34897 ft | 524 kts | 44° |
| 2026-05-08 19:09 | 31.65602 | -5.95347 | 34896 ft | 524 kts | 44° |
| 2026-05-08 19:10 | 31.70660 | -5.89196 | 34888 ft | 524 kts | 44° |
| 2026-05-08 19:10 | 31.75718 | -5.83032 | 34908 ft | 524 kts | 44° |
| 2026-05-08 19:11 | 31.80739 | -5.76900 | 34894 ft | 523 kts | 44° |
| 2026-05-08 19:11 | 31.85799 | -5.70716 | 34898 ft | 524 kts | 44° |
| 2026-05-08 19:12 | 31.90854 | -5.64526 | 34918 ft | 523 kts | 45° |
| 2026-05-08 19:12 | 31.95045 | -5.59385 | 34898 ft | 523 kts | 44° |
| 2026-05-08 19:13 | 32.00914 | -5.52176 | 34914 ft | 525 kts | 45° |
| 2026-05-08 19:13 | 32.05159 | -5.46954 | 34893 ft | 526 kts | 45° |
| 2026-05-08 19:14 | 32.10181 | -5.40761 | 34920 ft | 526 kts | 45° |
| 2026-05-08 19:14 | 32.15239 | -5.34516 | 34920 ft | 526 kts | 45° |
| 2026-05-08 19:15 | 32.20272 | -5.28266 | 34924 ft | 523 kts | 45° |
| 2026-05-08 19:15 | 32.25290 | -5.22052 | 34925 ft | 522 kts | 45° |
| 2026-05-08 19:16 | 32.30309 | -5.15847 | 34934 ft | 522 kts | 45° |
| 2026-05-08 19:16 | 32.35315 | -5.09636 | 34927 ft | 522 kts | 45° |
| 2026-05-08 19:17 | 32.40325 | -5.03399 | 34929 ft | 522 kts | 45° |
| 2026-05-08 19:17 | 32.45286 | -4.97209 | 34936 ft | 522 kts | 45° |
| 2026-05-08 19:18 | 32.50281 | -4.90965 | 34948 ft | 521 kts | 45° |
| 2026-05-08 19:18 | 32.55259 | -4.84730 | 34939 ft | 520 kts | 45° |
| 2026-05-08 19:19 | 32.60234 | -4.78491 | 34945 ft | 519 kts | 45° |
| 2026-05-08 19:19 | 32.65165 | -4.72293 | 34932 ft | 519 kts | 45° |
| 2026-05-08 19:20 | 32.70132 | -4.66048 | 34935 ft | 520 kts | 45° |
| 2026-05-08 19:20 | 32.75101 | -4.59788 | 34929 ft | 520 kts | 45° |
| 2026-05-08 19:21 | 32.80057 | -4.53532 | 34914 ft | 519 kts | 45° |
| 2026-05-08 19:21 | 32.84965 | -4.47323 | 34918 ft | 518 kts | 45° |
| 2026-05-08 19:22 | 32.89896 | -4.41074 | 34903 ft | 518 kts | 45° |
| 2026-05-08 19:22 | 32.94833 | -4.34807 | 34907 ft | 518 kts | 45° |
| 2026-05-08 19:23 | 32.99762 | -4.28540 | 34904 ft | 518 kts | 45° |
| 2026-05-08 19:23 | 33.04695 | -4.22257 | 34894 ft | 518 kts | 46° |
| 2026-05-08 19:24 | 33.09615 | -4.15979 | 34930 ft | 518 kts | 46° |
| 2026-05-08 19:24 | 33.14516 | -4.09712 | 34893 ft | 519 kts | 46° |
| 2026-05-08 19:25 | 33.19442 | -4.03404 | 34892 ft | 519 kts | 46° |
| 2026-05-08 19:25 | 33.24371 | -3.97081 | 34902 ft | 520 kts | 46° |
| 2026-05-08 19:26 | 33.29299 | -3.90750 | 34901 ft | 520 kts | 46° |
| 2026-05-08 19:26 | 33.34223 | -3.84411 | 34914 ft | 520 kts | 46° |
| 2026-05-08 19:27 | 33.39109 | -3.78105 | 34895 ft | 519 kts | 46° |
| 2026-05-08 19:27 | 33.44012 | -3.71771 | 34909 ft | 518 kts | 46° |
| 2026-05-08 19:28 | 33.48920 | -3.65419 | 34896 ft | 518 kts | 46° |
| 2026-05-08 19:28 | 33.53815 | -3.59075 | 34894 ft | 518 kts | 46° |
| 2026-05-08 19:29 | 33.58705 | -3.52724 | 34894 ft | 518 kts | 46° |
| 2026-05-08 19:29 | 33.63560 | -3.46407 | 34895 ft | 518 kts | 46° |
| 2026-05-08 19:30 | 33.68459 | -3.40021 | 34886 ft | 519 kts | 46° |
| 2026-05-08 19:30 | 33.73343 | -3.33642 | 34888 ft | 518 kts | 46° |
| 2026-05-08 19:31 | 33.78223 | -3.27256 | 34893 ft | 518 kts | 46° |
| 2026-05-08 19:31 | 33.83095 | -3.20868 | 34892 ft | 518 kts | 46° |
| 2026-05-08 19:32 | 33.87937 | -3.14510 | 34896 ft | 518 kts | 46° |
| 2026-05-08 19:32 | 33.92808 | -3.08107 | 34916 ft | 518 kts | 47° |
| 2026-05-08 19:33 | 33.97689 | -3.01676 | 34887 ft | 520 kts | 47° |
| 2026-05-08 19:33 | 34.02568 | -2.95234 | 34892 ft | 519 kts | 47° |
| 2026-05-08 19:33 | 34.05016 | -2.91998 | 35014 ft | 521 kts | 47° |
| 2026-05-08 19:34 | 34.07453 | -2.88773 | 35168 ft | 521 kts | 47° |
| 2026-05-08 19:34 | 34.09863 | -2.85580 | 35311 ft | 520 kts | 47° |
| 2026-05-08 19:34 | 34.12300 | -2.82349 | 35481 ft | 519 kts | 47° |
| 2026-05-08 19:34 | 34.14732 | -2.79122 | 35670 ft | 519 kts | 47° |
| 2026-05-08 19:35 | 34.17163 | -2.75894 | 35875 ft | 519 kts | 47° |
| 2026-05-08 19:35 | 34.19587 | -2.72672 | 36088 ft | 518 kts | 47° |
| 2026-05-08 19:35 | 34.22013 | -2.69444 | 36287 ft | 518 kts | 47° |
| 2026-05-08 19:35 | 34.24432 | -2.66223 | 36459 ft | 517 kts | 47° |
| 2026-05-08 19:36 | 34.26847 | -2.63004 | 36677 ft | 516 kts | 47° |
| 2026-05-08 19:36 | 34.29242 | -2.59809 | 36885 ft | 515 kts | 47° |
| 2026-05-08 19:36 | 34.31645 | -2.56600 | 37095 ft | 514 kts | 47° |
| 2026-05-08 19:36 | 34.34043 | -2.53396 | 37313 ft | 513 kts | 47° |
| 2026-05-08 19:37 | 34.36439 | -2.50189 | 37519 ft | 512 kts | 47° |
| 2026-05-08 19:37 | 34.38824 | -2.46997 | 37734 ft | 510 kts | 47° |
| 2026-05-08 19:37 | 34.41198 | -2.43815 | 37957 ft | 508 kts | 47° |
| 2026-05-08 19:37 | 34.43562 | -2.40644 | 38151 ft | 506 kts | 47° |
| 2026-05-08 19:38 | 34.45927 | -2.37469 | 38220 ft | 509 kts | 47° |
| 2026-05-08 19:38 | 34.50689 | -2.31068 | 38196 ft | 514 kts | 47° |
| 2026-05-08 19:39 | 34.55500 | -2.24587 | 38194 ft | 519 kts | 46° |
| 2026-05-08 19:39 | 34.60358 | -2.18029 | 38190 ft | 524 kts | 46° |
| 2026-05-08 19:40 | 34.65230 | -2.11439 | 38204 ft | 524 kts | 47° |
| 2026-05-08 19:40 | 34.70062 | -2.04891 | 38211 ft | 523 kts | 47° |
| 2026-05-08 19:41 | 34.74924 | -1.98290 | 38214 ft | 524 kts | 47° |
| 2026-05-08 19:41 | 34.79745 | -1.91603 | 38211 ft | 524 kts | 49° |
| 2026-05-08 19:42 | 34.84376 | -1.84829 | 38207 ft | 523 kts | 50° |
| 2026-05-08 19:42 | 34.88937 | -1.77906 | 38206 ft | 523 kts | 51° |
| 2026-05-08 19:43 | 34.93450 | -1.70935 | 38208 ft | 523 kts | 51° |
| 2026-05-08 19:43 | 34.97964 | -1.63976 | 38208 ft | 523 kts | 51° |
| 2026-05-08 19:44 | 35.02491 | -1.57014 | 38212 ft | 524 kts | 51° |
| 2026-05-08 19:44 | 35.07017 | -1.50048 | 38203 ft | 524 kts | 51° |
| 2026-05-08 19:45 | 35.11543 | -1.43071 | 38214 ft | 523 kts | 51° |
| 2026-05-08 19:45 | 35.16031 | -1.36137 | 38208 ft | 523 kts | 51° |
| 2026-05-08 19:46 | 35.20535 | -1.29164 | 38207 ft | 523 kts | 51° |
| 2026-05-08 19:46 | 35.27303 | -1.18660 | 38214 ft | 524 kts | 51° |
| 2026-05-08 19:47 | 35.31853 | -1.11661 | 38205 ft | 525 kts | 49° |
| 2026-05-08 19:47 | 35.36408 | -1.04678 | 38221 ft | 524 kts | 50° |
| 2026-05-08 19:48 | 35.40904 | -0.97702 | 38219 ft | 524 kts | 50° |
| 2026-05-08 19:48 | 35.45408 | -0.90657 | 38224 ft | 524 kts | 50° |
| 2026-05-08 19:49 | 35.49900 | -0.83605 | 38254 ft | 524 kts | 50° |
| 2026-05-08 19:49 | 35.54396 | -0.76535 | 38212 ft | 526 kts | 50° |
| 2026-05-08 19:50 | 35.58868 | -0.69490 | 38211 ft | 525 kts | 50° |
| 2026-05-08 19:50 | 35.62653 | -0.61844 | 38215 ft | 524 kts | 64° |
| 2026-05-08 19:51 | 35.65756 | -0.53719 | 38212 ft | 524 kts | 66° |
| 2026-05-08 19:51 | 35.68719 | -0.45511 | 38216 ft | 524 kts | 67° |
| 2026-05-08 19:52 | 35.71643 | -0.37364 | 38222 ft | 524 kts | 67° |
| 2026-05-08 19:52 | 35.74602 | -0.29160 | 38233 ft | 524 kts | 67° |
| 2026-05-08 19:53 | 35.77568 | -0.20948 | 38233 ft | 524 kts | 67° |
| 2026-05-08 19:53 | 35.80517 | -0.12770 | 38231 ft | 524 kts | 67° |
| 2026-05-08 19:54 | 35.83472 | -0.04552 | 38231 ft | 524 kts | 67° |
| 2026-05-08 19:54 | 35.86424 | 0.03683 | 38230 ft | 524 kts | 67° |
| 2026-05-08 19:55 | 35.89369 | 0.11920 | 38231 ft | 524 kts | 67° |
| 2026-05-08 19:55 | 35.92279 | 0.20167 | 38231 ft | 524 kts | 68° |
| 2026-05-08 19:56 | 35.95151 | 0.28420 | 38401 ft | 523 kts | 68° |
| 2026-05-08 19:56 | 35.98009 | 0.36661 | 38431 ft | 526 kts | 68° |
| 2026-05-08 19:57 | 36.00882 | 0.44953 | 38428 ft | 524 kts | 67° |
| 2026-05-08 19:57 | 36.03731 | 0.53191 | 38431 ft | 523 kts | 68° |
| 2026-05-08 19:58 | 36.06588 | 0.61473 | 38431 ft | 523 kts | 68° |
| 2026-05-08 19:58 | 36.09437 | 0.69754 | 38432 ft | 523 kts | 68° |
| 2026-05-08 19:59 | 36.12280 | 0.78042 | 38419 ft | 523 kts | 67° |
| 2026-05-08 19:59 | 36.15117 | 0.86334 | 38429 ft | 523 kts | 67° |
| 2026-05-08 20:00 | 36.17925 | 0.94565 | 38430 ft | 523 kts | 67° |
| 2026-05-08 20:00 | 36.20747 | 1.02859 | 38425 ft | 523 kts | 68° |
| 2026-05-08 20:01 | 36.23108 | 1.09813 | 38423 ft | 522 kts | 68° |
| 2026-05-08 20:01 | 36.25917 | 1.18111 | 38414 ft | 523 kts | 68° |
| 2026-05-08 20:02 | 36.28709 | 1.26381 | 38416 ft | 523 kts | 67° |
| 2026-05-08 20:02 | 36.31514 | 1.34714 | 38411 ft | 523 kts | 67° |
| 2026-05-08 20:03 | 36.34314 | 1.43053 | 38419 ft | 523 kts | 68° |
| 2026-05-08 20:03 | 36.37115 | 1.51398 | 38425 ft | 523 kts | 67° |
| 2026-05-08 20:04 | 36.39958 | 1.59703 | 38435 ft | 523 kts | 66° |
| 2026-05-08 20:04 | 36.42817 | 1.68008 | 38444 ft | 523 kts | 66° |
| 2026-05-08 20:05 | 36.45649 | 1.76263 | 38459 ft | 523 kts | 66° |
| 2026-05-08 20:05 | 36.48499 | 1.84612 | 38458 ft | 523 kts | 67° |
| 2026-05-08 20:06 | 36.51327 | 1.92943 | 38428 ft | 523 kts | 66° |
| 2026-05-08 20:06 | 36.54135 | 2.01228 | 38466 ft | 524 kts | 66° |
| 2026-05-08 20:07 | 36.56960 | 2.09573 | 38463 ft | 523 kts | 66° |
| 2026-05-08 20:07 | 36.59663 | 2.17981 | 38458 ft | 522 kts | 76° |
| 2026-05-08 20:08 | 36.60962 | 2.26840 | 38467 ft | 519 kts | 84° |
| 2026-05-08 20:08 | 36.61820 | 2.35763 | 38470 ft | 518 kts | 86° |
| 2026-05-08 20:09 | 36.62582 | 2.44678 | 38475 ft | 517 kts | 86° |
| 2026-05-08 20:09 | 36.63346 | 2.53547 | 38470 ft | 518 kts | 86° |
| 2026-05-08 20:10 | 36.64129 | 2.62460 | 38468 ft | 518 kts | 86° |
| 2026-05-08 20:10 | 36.64915 | 2.71392 | 38467 ft | 518 kts | 86° |
| 2026-05-08 20:11 | 36.65694 | 2.80310 | 38473 ft | 518 kts | 86° |
| 2026-05-08 20:11 | 36.66464 | 2.89218 | 38480 ft | 518 kts | 86° |
| 2026-05-08 20:12 | 36.67224 | 2.98094 | 38485 ft | 518 kts | 86° |
| 2026-05-08 20:12 | 36.67981 | 3.07013 | 38481 ft | 517 kts | 86° |
| 2026-05-08 20:13 | 36.68731 | 3.15927 | 38493 ft | 517 kts | 86° |
| 2026-05-08 20:13 | 36.70210 | 3.24701 | 38492 ft | 518 kts | 72° |
| 2026-05-08 20:14 | 36.72563 | 3.33239 | 38492 ft | 521 kts | 69° |
| 2026-05-08 20:14 | 36.75063 | 3.41675 | 38488 ft | 522 kts | 69° |
| 2026-05-08 20:15 | 36.77585 | 3.50172 | 38489 ft | 522 kts | 69° |
| 2026-05-08 20:15 | 36.80951 | 3.58106 | 38479 ft | 514 kts | 46° |
| 2026-05-08 20:16 | 36.85823 | 3.64576 | 38473 ft | 511 kts | 39° |
| 2026-05-08 20:16 | 36.90986 | 3.70700 | 38473 ft | 512 kts | 37° |
| 2026-05-08 20:17 | 36.96195 | 3.76787 | 38476 ft | 513 kts | 38° |
| 2026-05-08 20:17 | 37.01363 | 3.82893 | 38469 ft | 514 kts | 38° |
| 2026-05-08 20:18 | 37.06541 | 3.89071 | 38477 ft | 513 kts | 38° |
| 2026-05-08 20:18 | 37.11736 | 3.95236 | 38477 ft | 513 kts | 38° |
| 2026-05-08 20:19 | 37.16912 | 4.01341 | 38522 ft | 512 kts | 37° |
| 2026-05-08 20:19 | 37.22105 | 4.07474 | 38485 ft | 513 kts | 37° |
| 2026-05-08 20:20 | 37.27311 | 4.13641 | 38490 ft | 514 kts | 38° |
| 2026-05-08 20:20 | 37.32504 | 4.19811 | 38469 ft | 514 kts | 38° |
| 2026-05-08 20:21 | 37.37689 | 4.25984 | 38493 ft | 513 kts | 38° |
| 2026-05-08 20:21 | 37.42839 | 4.32127 | 38497 ft | 513 kts | 37° |
| 2026-05-08 20:22 | 37.48019 | 4.38316 | 38499 ft | 513 kts | 38° |
| 2026-05-08 20:22 | 37.53197 | 4.44517 | 38501 ft | 513 kts | 38° |
| 2026-05-08 20:23 | 37.58342 | 4.50689 | 38505 ft | 513 kts | 38° |
| 2026-05-08 20:23 | 37.63515 | 4.56910 | 38534 ft | 513 kts | 37° |
| 2026-05-08 20:24 | 37.68679 | 4.63131 | 38507 ft | 512 kts | 37° |
| 2026-05-08 20:24 | 37.73815 | 4.69364 | 38510 ft | 512 kts | 39° |
| 2026-05-08 20:25 | 37.78925 | 4.75662 | 38511 ft | 512 kts | 39° |
| 2026-05-08 20:25 | 37.84034 | 4.81917 | 38512 ft | 512 kts | 39° |
| 2026-05-08 20:26 | 37.89170 | 4.88169 | 38514 ft | 513 kts | 38° |
| 2026-05-08 20:26 | 37.94322 | 4.94433 | 38515 ft | 513 kts | 38° |
| 2026-05-08 20:27 | 37.99433 | 5.00660 | 38510 ft | 512 kts | 38° |
| 2026-05-08 20:27 | 38.04579 | 5.06910 | 38509 ft | 511 kts | 38° |
| 2026-05-08 20:28 | 38.09729 | 5.13163 | 38533 ft | 512 kts | 38° |
| 2026-05-08 20:28 | 38.14877 | 5.19429 | 38521 ft | 512 kts | 38° |
| 2026-05-08 20:29 | 38.20023 | 5.25709 | 38522 ft | 512 kts | 38° |
| 2026-05-08 20:29 | 38.25130 | 5.31955 | 38523 ft | 512 kts | 38° |
| 2026-05-08 20:30 | 38.30261 | 5.38244 | 38526 ft | 512 kts | 38° |
| 2026-05-08 20:30 | 38.35388 | 5.44541 | 38532 ft | 512 kts | 38° |
| 2026-05-08 20:31 | 38.40510 | 5.50843 | 38529 ft | 512 kts | 38° |
| 2026-05-08 20:31 | 38.45636 | 5.57165 | 38529 ft | 512 kts | 38° |
| 2026-05-08 20:32 | 38.50753 | 5.63487 | 38529 ft | 512 kts | 38° |
| 2026-05-08 20:32 | 38.55834 | 5.69779 | 38531 ft | 512 kts | 38° |
| 2026-05-08 20:33 | 38.60948 | 5.76126 | 38532 ft | 511 kts | 38° |
| 2026-05-08 20:33 | 38.66047 | 5.82467 | 38535 ft | 511 kts | 38° |
| 2026-05-08 20:34 | 38.71143 | 5.88816 | 38537 ft | 511 kts | 38° |
| 2026-05-08 20:35 | 38.78764 | 5.98305 | 38540 ft | 511 kts | 37° |
| 2026-05-08 20:35 | 38.83969 | 6.04501 | 38540 ft | 510 kts | 36° |
| 2026-05-08 20:36 | 38.89199 | 6.10645 | 38539 ft | 510 kts | 36° |
| 2026-05-08 20:36 | 38.94417 | 6.16814 | 38540 ft | 510 kts | 36° |
| 2026-05-08 20:37 | 38.99631 | 6.23018 | 38540 ft | 510 kts | 36° |
| 2026-05-08 20:37 | 39.04810 | 6.29201 | 38539 ft | 511 kts | 36° |
| 2026-05-08 20:38 | 39.10028 | 6.35447 | 38541 ft | 511 kts | 36° |
| 2026-05-08 20:38 | 39.15236 | 6.41695 | 38542 ft | 511 kts | 36° |
| 2026-05-08 20:39 | 39.20406 | 6.47907 | 38546 ft | 511 kts | 36° |
| 2026-05-08 20:39 | 39.25616 | 6.54181 | 38548 ft | 512 kts | 36° |
| 2026-05-08 20:40 | 39.30828 | 6.60470 | 38548 ft | 512 kts | 36° |
| 2026-05-08 20:40 | 39.36034 | 6.66767 | 38544 ft | 512 kts | 36° |
| 2026-05-08 20:41 | 39.41204 | 6.73033 | 38548 ft | 512 kts | 36° |
| 2026-05-08 20:41 | 39.46394 | 6.79338 | 38548 ft | 511 kts | 36° |
| 2026-05-08 20:42 | 39.51588 | 6.85658 | 38551 ft | 511 kts | 36° |
| 2026-05-08 20:42 | 39.56764 | 6.91970 | 38552 ft | 511 kts | 36° |
| 2026-05-08 20:43 | 39.61903 | 6.98252 | 38560 ft | 510 kts | 36° |
| 2026-05-08 20:43 | 39.67069 | 7.04581 | 38555 ft | 510 kts | 36° |
| 2026-05-08 20:44 | 39.72234 | 7.10922 | 38556 ft | 510 kts | 36° |
| 2026-05-08 20:44 | 39.77389 | 7.17264 | 38559 ft | 510 kts | 36° |
| 2026-05-08 20:45 | 39.82542 | 7.23619 | 38564 ft | 509 kts | 36° |
| 2026-05-08 20:45 | 39.87635 | 7.29916 | 38560 ft | 507 kts | 36° |
| 2026-05-08 20:46 | 39.92752 | 7.36252 | 38554 ft | 507 kts | 36° |
| 2026-05-08 20:46 | 39.97863 | 7.42594 | 38561 ft | 507 kts | 36° |
| 2026-05-08 20:47 | 40.02108 | 7.47871 | 38591 ft | 507 kts | 36° |
| 2026-05-08 20:47 | 40.08038 | 7.55262 | 38569 ft | 506 kts | 36° |
| 2026-05-08 20:48 | 40.12286 | 7.60568 | 38563 ft | 506 kts | 36° |
| 2026-05-08 20:48 | 40.17374 | 7.66935 | 38570 ft | 505 kts | 36° |
| 2026-05-08 20:49 | 40.22448 | 7.73298 | 38596 ft | 505 kts | 36° |
| 2026-05-08 20:49 | 40.27515 | 7.79666 | 38564 ft | 504 kts | 36° |
| 2026-05-08 20:50 | 40.32532 | 7.85986 | 38567 ft | 504 kts | 36° |
| 2026-05-08 20:50 | 40.37578 | 7.92356 | 38564 ft | 504 kts | 36° |
| 2026-05-08 20:51 | 40.42637 | 7.98755 | 38565 ft | 504 kts | 36° |
| 2026-05-08 20:51 | 40.47674 | 8.05145 | 38568 ft | 502 kts | 36° |
| 2026-05-08 20:52 | 40.52680 | 8.11507 | 38573 ft | 502 kts | 36° |
| 2026-05-08 20:52 | 40.57702 | 8.17904 | 38573 ft | 503 kts | 37° |
| 2026-05-08 20:52 | 40.60022 | 8.21386 | 38575 ft | 511 kts | 49° |
| 2026-05-08 20:53 | 40.61870 | 8.25425 | 38605 ft | 519 kts | 62° |
| 2026-05-08 20:53 | 40.63060 | 8.29913 | 38574 ft | 520 kts | 77° |
| 2026-05-08 20:53 | 40.63696 | 8.34613 | 38568 ft | 521 kts | 81° |
| 2026-05-08 20:54 | 40.64527 | 8.44079 | 38558 ft | 520 kts | 84° |
| 2026-05-08 20:54 | 40.65183 | 8.53569 | 38567 ft | 520 kts | 84° |
| 2026-05-08 20:55 | 40.65861 | 8.63066 | 38565 ft | 520 kts | 84° |
| 2026-05-08 20:55 | 40.66570 | 8.72503 | 38563 ft | 520 kts | 83° |
| 2026-05-08 20:56 | 40.67301 | 8.81977 | 38567 ft | 519 kts | 83° |
| 2026-05-08 20:56 | 40.67938 | 8.86643 | 38566 ft | 516 kts | 71° |
| 2026-05-08 20:56 | 40.69046 | 8.91134 | 38573 ft | 514 kts | 68° |
| 2026-05-08 20:57 | 40.71558 | 8.99956 | 38575 ft | 513 kts | 65° |
| 2026-05-08 20:57 | 40.74218 | 9.08646 | 38568 ft | 512 kts | 60° |
| 2026-05-08 20:58 | 40.77328 | 9.17107 | 38611 ft | 511 kts | 60° |
| 2026-05-08 20:58 | 40.80480 | 9.25428 | 38575 ft | 507 kts | 60° |
| 2026-05-08 20:59 | 40.83659 | 9.33731 | 38571 ft | 506 kts | 59° |
| 2026-05-08 20:59 | 40.86837 | 9.42046 | 38573 ft | 506 kts | 60° |
| 2026-05-08 21:00 | 40.89983 | 9.50314 | 38571 ft | 506 kts | 60° |
| 2026-05-08 21:00 | 40.93140 | 9.58648 | 38575 ft | 507 kts | 60° |
| 2026-05-08 21:01 | 40.96293 | 9.66987 | 38577 ft | 505 kts | 60° |
| 2026-05-08 21:01 | 40.99404 | 9.75245 | 38570 ft | 503 kts | 60° |
| 2026-05-08 21:02 | 41.02521 | 9.83543 | 38559 ft | 502 kts | 60° |
| 2026-05-08 21:02 | 41.05631 | 9.91843 | 38410 ft | 503 kts | 60° |
| 2026-05-08 21:02 | 41.07184 | 9.96000 | 38123 ft | 502 kts | 60° |
| 2026-05-08 21:03 | 41.08730 | 10.00144 | 37865 ft | 501 kts | 61° |
| 2026-05-08 21:03 | 41.10276 | 10.04296 | 37599 ft | 501 kts | 61° |
| 2026-05-08 21:03 | 41.11806 | 10.08400 | 37332 ft | 500 kts | 60° |
| 2026-05-08 21:03 | 41.13349 | 10.12530 | 37087 ft | 498 kts | 61° |
| 2026-05-08 21:04 | 41.14887 | 10.16650 | 36806 ft | 499 kts | 61° |
| 2026-05-08 21:04 | 41.16424 | 10.20781 | 36538 ft | 498 kts | 61° |
| 2026-05-08 21:04 | 41.17950 | 10.24894 | 36279 ft | 495 kts | 61° |
| 2026-05-08 21:04 | 41.19473 | 10.29011 | 36029 ft | 494 kts | 61° |
| 2026-05-08 21:05 | 41.20966 | 10.33054 | 35777 ft | 494 kts | 62° |
| 2026-05-08 21:05 | 41.22480 | 10.37164 | 35530 ft | 493 kts | 62° |
| 2026-05-08 21:05 | 41.23985 | 10.41255 | 35285 ft | 493 kts | 62° |
| 2026-05-08 21:05 | 41.25490 | 10.45351 | 35042 ft | 492 kts | 62° |
| 2026-05-08 21:06 | 41.26993 | 10.49447 | 34802 ft | 492 kts | 62° |
| 2026-05-08 21:06 | 41.28474 | 10.53490 | 34561 ft | 491 kts | 62° |
| 2026-05-08 21:06 | 41.29968 | 10.57573 | 34071 ft | 490 kts | 62° |
| 2026-05-08 21:06 | 41.31460 | 10.61656 | 33177 ft | 492 kts | 63° |
| 2026-05-08 21:07 | 41.32953 | 10.65749 | 32361 ft | 492 kts | 63° |
| 2026-05-08 21:07 | 41.34445 | 10.69841 | 31520 ft | 488 kts | 63° |
| 2026-05-08 21:07 | 41.35911 | 10.73876 | 30862 ft | 477 kts | 63° |
| 2026-05-08 21:07 | 41.37337 | 10.77804 | 30310 ft | 464 kts | 63° |
| 2026-05-08 21:08 | 41.38726 | 10.81635 | 29678 ft | 454 kts | 63° |
| 2026-05-08 21:08 | 41.40081 | 10.85378 | 29104 ft | 442 kts | 63° |
| 2026-05-08 21:08 | 41.41403 | 10.89033 | 28553 ft | 432 kts | 63° |
| 2026-05-08 21:08 | 41.42685 | 10.92581 | 28015 ft | 430 kts | 63° |
| 2026-05-08 21:09 | 41.43986 | 10.96182 | 27447 ft | 430 kts | 63° |
| 2026-05-08 21:09 | 41.45278 | 10.99765 | 26885 ft | 428 kts | 63° |
| 2026-05-08 21:09 | 41.46566 | 11.03340 | 26327 ft | 426 kts | 63° |
| 2026-05-08 21:09 | 41.47818 | 11.06916 | 25703 ft | 427 kts | 65° |
| 2026-05-08 21:10 | 41.48912 | 11.10597 | 25115 ft | 426 kts | 68° |
| 2026-05-08 21:10 | 41.49952 | 11.14297 | 24504 ft | 426 kts | 68° |
| 2026-05-08 21:10 | 41.50987 | 11.18010 | 23862 ft | 427 kts | 68° |
| 2026-05-08 21:10 | 41.52023 | 11.21723 | 23141 ft | 428 kts | 68° |
| 2026-05-08 21:11 | 41.53062 | 11.25441 | 22453 ft | 426 kts | 68° |
| 2026-05-08 21:11 | 41.54080 | 11.29083 | 21814 ft | 423 kts | 68° |
| 2026-05-08 21:11 | 41.55106 | 11.32757 | 21208 ft | 420 kts | 68° |
| 2026-05-08 21:11 | 41.56109 | 11.36355 | 20963 ft | 406 kts | 68° |
| 2026-05-08 21:12 | 41.57095 | 11.39890 | 20302 ft | 406 kts | 67° |
| 2026-05-08 21:12 | 41.58085 | 11.43421 | 19759 ft | 402 kts | 67° |
| 2026-05-08 21:12 | 41.59056 | 11.46861 | 19197 ft | 400 kts | 67° |
| 2026-05-08 21:12 | 41.60033 | 11.50318 | 18668 ft | 396 kts | 67° |
| 2026-05-08 21:13 | 41.61003 | 11.53754 | 18129 ft | 393 kts | 67° |
| 2026-05-08 21:13 | 41.61960 | 11.57146 | 17696 ft | 385 kts | 67° |
| 2026-05-08 21:13 | 41.62890 | 11.60451 | 17279 ft | 376 kts | 67° |
| 2026-05-08 21:13 | 41.63807 | 11.63713 | 16713 ft | 373 kts | 68° |
| 2026-05-08 21:14 | 41.64711 | 11.66935 | 16238 ft | 367 kts | 68° |
| 2026-05-08 21:14 | 41.65603 | 11.70117 | 15737 ft | 363 kts | 68° |
| 2026-05-08 21:14 | 41.66485 | 11.73265 | 15235 ft | 359 kts | 68° |
| 2026-05-08 21:14 | 41.67348 | 11.76351 | 14930 ft | 347 kts | 68° |
| 2026-05-08 21:15 | 41.68173 | 11.79310 | 14586 ft | 333 kts | 68° |
| 2026-05-08 21:15 | 41.68964 | 11.82146 | 14089 ft | 326 kts | 68° |
| 2026-05-08 21:15 | 41.69752 | 11.84973 | 13521 ft | 321 kts | 68° |
| 2026-05-08 21:15 | 41.70526 | 11.87758 | 12919 ft | 317 kts | 68° |
| 2026-05-08 21:16 | 41.71287 | 11.90505 | 12318 ft | 313 kts | 69° |
| 2026-05-08 21:16 | 41.72036 | 11.93220 | 11737 ft | 309 kts | 69° |
| 2026-05-08 21:16 | 41.72766 | 11.95873 | 11414 ft | 296 kts | 69° |
| 2026-05-08 21:16 | 41.73506 | 11.98381 | 11108 ft | 284 kts | 61° |
| 2026-05-08 21:17 | 41.74654 | 12.00459 | 10644 ft | 275 kts | 38° |
| 2026-05-08 21:17 | 41.76278 | 12.01650 | 10204 ft | 268 kts | 12° |
| 2026-05-08 21:17 | 41.78107 | 12.01798 | 9810 ft | 261 kts | 349° |
| 2026-05-08 21:17 | 41.79857 | 12.01225 | 9409 ft | 258 kts | 342° |
| 2026-05-08 21:18 | 41.81566 | 12.00494 | 8988 ft | 256 kts | 341° |
| 2026-05-08 21:18 | 41.83259 | 11.99749 | 8569 ft | 255 kts | 341° |
| 2026-05-08 21:18 | 41.84948 | 11.99014 | 8163 ft | 254 kts | 342° |
| 2026-05-08 21:18 | 41.86624 | 11.98292 | 7765 ft | 252 kts | 342° |
| 2026-05-08 21:19 | 41.88276 | 11.97586 | 7419 ft | 251 kts | 342° |
| 2026-05-08 21:19 | 41.89940 | 11.96873 | 7171 ft | 250 kts | 342° |
| 2026-05-08 21:19 | 41.91598 | 11.96165 | 6929 ft | 250 kts | 342° |
| 2026-05-08 21:19 | 41.93252 | 11.95459 | 6690 ft | 249 kts | 342° |
| 2026-05-08 21:20 | 41.94902 | 11.94755 | 6433 ft | 248 kts | 342° |
| 2026-05-08 21:20 | 41.96546 | 11.94057 | 6189 ft | 248 kts | 342° |
| 2026-05-08 21:20 | 41.98191 | 11.93359 | 6118 ft | 248 kts | 342° |
| 2026-05-08 21:20 | 41.99843 | 11.92658 | 6109 ft | 248 kts | 342° |
| 2026-05-08 21:21 | 42.01469 | 11.91967 | 6102 ft | 249 kts | 342° |
| 2026-05-08 21:21 | 42.03119 | 11.91266 | 6096 ft | 249 kts | 342° |
| 2026-05-08 21:21 | 42.04772 | 11.90572 | 6046 ft | 249 kts | 345° |
| 2026-05-08 21:21 | 42.06542 | 11.90272 | 5801 ft | 265 kts | 3° |
| 2026-05-08 21:22 | 42.08325 | 11.90919 | 5537 ft | 269 kts | 30° |
| 2026-05-08 21:22 | 42.09637 | 11.92661 | 5291 ft | 267 kts | 60° |
| 2026-05-08 21:22 | 42.10305 | 11.94993 | 5113 ft | 267 kts | 75° |
| 2026-05-08 21:22 | 42.10746 | 11.97426 | 5088 ft | 268 kts | 77° |
| 2026-05-08 21:23 | 42.11154 | 11.99873 | 5091 ft | 268 kts | 77° |
| 2026-05-08 21:23 | 42.11397 | 12.02324 | 5092 ft | 268 kts | 91° |
| 2026-05-08 21:23 | 42.11019 | 12.04761 | 5100 ft | 267 kts | 114° |
| 2026-05-08 21:23 | 42.09989 | 12.06826 | 5113 ft | 267 kts | 129° |
| 2026-05-08 21:24 | 42.08743 | 12.08686 | 5049 ft | 267 kts | 132° |
| 2026-05-08 21:24 | 42.07485 | 12.10480 | 4912 ft | 259 kts | 133° |
| 2026-05-08 21:24 | 42.06149 | 12.12041 | 4647 ft | 253 kts | 147° |
| 2026-05-08 21:24 | 42.04555 | 12.13014 | 4338 ft | 250 kts | 160° |
| 2026-05-08 21:25 | 42.02894 | 12.13688 | 4038 ft | 247 kts | 163° |
| 2026-05-08 21:25 | 42.01302 | 12.14317 | 3933 ft | 229 kts | 162° |
| 2026-05-08 21:25 | 41.99832 | 12.14926 | 3794 ft | 212 kts | 161° |
| 2026-05-08 21:25 | 41.98480 | 12.15496 | 3649 ft | 196 kts | 161° |
| 2026-05-08 21:26 | 41.97208 | 12.16040 | 3410 ft | 187 kts | 161° |
| 2026-05-08 21:26 | 41.96004 | 12.16549 | 3141 ft | 179 kts | 161° |
| 2026-05-08 21:26 | 41.94834 | 12.17041 | 2899 ft | 171 kts | 161° |
| 2026-05-08 21:26 | 41.93734 | 12.17505 | 2666 ft | 160 kts | 161° |
| 2026-05-08 21:27 | 41.92690 | 12.17945 | 2471 ft | 156 kts | 161° |
| 2026-05-08 21:27 | 41.91656 | 12.18381 | 2256 ft | 156 kts | 161° |
| 2026-05-08 21:27 | 41.90667 | 12.18798 | 1894 ft | 143 kts | 161° |
| 2026-05-08 21:27 | 41.89739 | 12.19188 | 1711 ft | 137 kts | 161° |
| 2026-05-08 21:28 | 41.88831 | 12.19571 | 1516 ft | 137 kts | 161° |
| 2026-05-08 21:28 | 41.87922 | 12.19953 | 1337 ft | 137 kts | 161° |
| 2026-05-08 21:28 | 41.87024 | 12.20331 | 1152 ft | 136 kts | 161° |
| 2026-05-08 21:28 | 41.86119 | 12.20712 | 981 ft | 136 kts | 161° |
| 2026-05-08 21:29 | 41.85215 | 12.21092 | 797 ft | 136 kts | 161° |
| 2026-05-08 21:29 | 41.84290 | 12.21483 | 583 ft | 140 kts | 161° |
| 2026-05-08 21:29 | 41.83369 | 12.21882 | 396 ft | 138 kts | 160° |
| 2026-05-08 21:29 | 41.82476 | 12.22252 | 214 ft | 130 kts | 161° |
| 2026-05-08 21:30 | 41.81631 | 12.22609 | 65 ft | 125 kts | 160° |
| 2026-05-08 21:30 | 41.80847 | 12.22941 | 19 ft | 101 kts | 162° |
| 2026-05-08 21:30 | 41.80442 | 12.23104 | 17 ft | 37 kts | 163° |
| 2026-05-08 21:30 | 41.80169 | 12.23217 | 21 ft | 48 kts | 161° |
| 2026-05-08 21:31 | 41.79817 | 12.23366 | 18 ft | 56 kts | 163° |
| 2026-05-08 21:31 | 41.79528 | 12.23536 | 12 ft | 49 kts | 143° |
| 2026-05-08 21:31 | 41.79367 | 12.23745 | 14 ft | 3 kts | 133° |
| 2026-05-08 21:32 | 41.79353 | 12.23767 | 15 ft | 11 kts | 128° |
| 2026-05-08 21:32 | 41.79328 | 12.23940 | 20 ft | 28 kts | 70° |
| 2026-05-08 21:32 | 41.79387 | 12.24199 | 20 ft | 18 kts | 68° |
| 2026-05-08 21:32 | 41.79342 | 12.24348 | 22 ft | 26 kts | 122° |
| 2026-05-08 21:33 | 41.79302 | 12.24534 | 20 ft | 12 kts | 78° |
| 2026-05-08 21:33 | 41.79305 | 12.24591 | 21 ft | 1 kts | 175° |
| 2026-05-08 21:33 | 41.79234 | 12.24586 | 21 ft | 7 kts | 171° |
| 2026-05-08 21:33 | 41.79232 | 12.24586 | 21 ft | 0 kts | 171° |